Date,TemperatureHighF,TemperatureAvgF,TemperatureLowF,DewpointHighF,DewpointAvgF,DewpointLowF,HumidityHigh,HumidityAvg,HumidityLow,PressureMaxIn,PressureMinIn,WindSpeedMaxMPH,WindSpeedAvgMPH,GustSpeedMaxMPH,PrecipitationSumIn
2013-3-1,47.4,40.2,33.6,34.2,31.0,28.4,88,71,54,29.76,29.60,16,3,16,0.00
2013-3-2,45.4,37.9,32.0,28.8,26.4,23.9,72,63,50,29.77,29.67,19,3,19,0.00
2013-3-3,41.3,34.4,30.6,24.6,22.5,20.5,73,62,48,29.75,29.66,21,4,21,0.00
2013-3-4,44.7,35.7,28.1,25.5,22.1,18.3,70,58,45,29.90,29.75,24,5,24,0.00
2013-3-5,46.9,38.3,30.5,34.8,27.9,22.7,85,67,49,30.00,29.89,15,2,15,0.00
2013-3-6,41.1,39.8,36.9,38.2,35.5,32.8,90,85,79,29.94,29.71,44,11,44,0.23
2013-3-7,40.8,36.9,34.6,35.6,33.4,31.2,91,87,75,30.05,29.83,27,8,27,0.21
2013-3-8,41.9,35.6,32.4,35.2,32.5,30.3,93,89,72,30.14,29.97,20,6,20,0.15
2013-3-9,58.2,44.3,35.2,35.1,29.0,22.9,81,58,27,30.30,30.13,18,4,18,0.00
2013-3-10,42.7,37.9,31.9,36.3,33.4,28.8,92,84,77,30.37,30.29,7,1,9,0.00
2013-3-11,50.2,43.9,34.4,45.6,40.9,31.9,94,90,84,30.30,30.07,14,2,14,0.00
2013-3-12,54.7,49.4,46.3,53.6,47.5,42.6,96,93,85,30.08,29.66,26,5,26,0.78
2013-3-13,53.9,44.4,37.7,42.5,33.7,27.6,86,68,39,29.89,29.78,21,2,21,0.00
2013-3-14,44.2,36.2,30.9,27.9,20.7,15.7,66,54,36,29.95,29.85,22,6,23,0.00
2013-3-15,50.0,41.0,29.6,28.5,22.9,13.8,59,49,41,29.99,29.71,19,3,19,0.00
2013-3-16,43.1,37.5,33.6,32.9,29.7,24.6,92,74,55,29.89,29.74,15,2,15,0.18
2013-3-17,41.7,35.6,29.8,32.2,25.2,20.5,91,68,48,30.28,29.89,21,2,21,0.00
2013-3-18,41.0,36.6,32.2,38.7,28.1,16.5,94,72,51,30.37,29.92,22,3,22,0.52
2013-3-19,48.6,42.2,39.2,41.9,37.5,22.3,96,85,47,29.92,29.67,20,4,20,0.46
2013-3-20,51.1,41.1,32.0,26.1,22.3,19.8,64,48,34,29.90,29.78,21,4,21,0.00
2013-3-21,42.2,34.5,30.8,29.3,25.4,18.9,86,70,50,29.79,29.63,17,3,17,0.02
2013-3-22,44.2,35.3,27.3,24.2,21.2,16.6,72,57,41,29.89,29.74,23,4,23,0.00
2013-3-23,50.4,39.4,29.7,26.5,23.2,21.1,71,54,37,29.92,29.80,22,4,22,0.00
2013-3-24,46.2,38.6,30.2,30.5,25.2,20.3,70,59,41,29.94,29.68,17,2,17,0.00
2013-3-25,39.7,36.8,33.4,34.8,33.0,29.8,93,86,70,29.68,29.41,30,5,30,0.72
2013-3-26,53.2,42.2,32.9,40.9,33.9,31.1,95,75,47,29.85,29.57,13,1,13,0.09
2013-3-27,54.4,44.5,35.2,34.3,30.7,27.4,76,60,38,29.97,29.85,22,3,22,0.00
2013-3-28,52.4,44.0,35.0,34.5,32.0,29.8,81,63,47,30.09,29.95,16,3,16,0.00
2013-3-29,58.2,46.7,36.4,36.6,31.5,29.3,77,57,36,30.13,30.03,16,2,16,0.00
2013-3-30,58.6,45.5,35.7,40.0,34.2,28.6,81,66,33,30.16,30.06,14,2,14,0.00
2013-3-31,51.6,45.5,36.8,47.6,39.0,29.6,94,79,60,30.12,29.67,18,2,18,0.45